Ponto Lake, Minnesota
Current Conditions -  °F | °C
As of 3:14 AM on Saturday 22 Nov 2014 (Local Time) from KPWC Reporting Station
Haze Haze  
Wind Chill: 19°   Ceiling: Unl
Heat Index: 19°   Visibility: 3mi
Dew Point: 19°   Wind: 3mph
Humidity: 100%   Direction: 150°SSE
Pressure: 29.73"   Gusts: NA
Location:  46.6535°N, 94.5389°W
Report Text: KPWC 220914Z AUTO 15003KT 3SM BR CLR M07/M07 A2973 RMK AO2
Loading
Personal Weather Stations






























Interactive Weather Map New forecast layout! Learn more

10-Day Weather Forecast

Advertisements
Track Severe Weather on mobile